sensor_id;sensor_type;location;lat;lon;timestamp;temperature;humidity
71396;DHT22;59888;55.814;37.132;2022-12-18T00:01:30;-1.16;66.81
71396;DHT22;59888;55.814;37.132;2022-12-18T00:03:57;-1.15;66.04
71396;DHT22;59888;55.814;37.132;2022-12-18T00:06:24;-1.17;65.57
71396;DHT22;59888;55.814;37.132;2022-12-18T00:08:52;-1.16;65.22
71396;DHT22;59888;55.814;37.132;2022-12-18T00:11:20;-1.19;65.92
71396;DHT22;59888;55.814;37.132;2022-12-18T00:13:46;-1.19;65.66
71396;DHT22;59888;55.814;37.132;2022-12-18T00:16:15;-1.21;66.22
71396;DHT22;59888;55.814;37.132;2022-12-18T00:18:41;-1.23;65.67
71396;DHT22;59888;55.814;37.132;2022-12-18T00:21:10;-1.17;65.49
71396;DHT22;59888;55.814;37.132;2022-12-18T00:23:36;-1.17;64.83
71396;DHT22;59888;55.814;37.132;2022-12-18T00:26:11;-1.19;65.60
71396;DHT22;59888;55.814;37.132;2022-12-18T00:28:37;-1.15;64.96
71396;DHT22;59888;55.814;37.132;2022-12-18T00:31:12;-1.15;64.50
71396;DHT22;59888;55.814;37.132;2022-12-18T00:33:39;-1.14;64.24
71396;DHT22;59888;55.814;37.132;2022-12-18T00:36:07;-1.11;64.59
71396;DHT22;59888;55.814;37.132;2022-12-18T00:38:35;-1.09;64.09
71396;DHT22;59888;55.814;37.132;2022-12-18T00:41:02;-1.16;67.94
71396;DHT22;59888;55.814;37.132;2022-12-18T00:43:28;-1.14;66.51
71396;DHT22;59888;55.814;37.132;2022-12-18T00:45:54;-1.18;65.37
71396;DHT22;59888;55.814;37.132;2022-12-18T00:48:20;-1.24;65.17
71396;DHT22;59888;55.814;37.132;2022-12-18T00:50:48;-1.23;64.83
71396;DHT22;59888;55.814;37.132;2022-12-18T00:53:14;-1.21;65.17
71396;DHT22;59888;55.814;37.132;2022-12-18T00:55:40;-1.18;64.95
71396;DHT22;59888;55.814;37.132;2022-12-18T00:58:07;-1.21;64.61
71396;DHT22;59888;55.814;37.132;2022-12-18T01:00:35;-1.21;65.21
71396;DHT22;59888;55.814;37.132;2022-12-18T01:03:01;-1.27;65.13
71396;DHT22;59888;55.814;37.132;2022-12-18T01:05:27;-1.28;64.52
71396;DHT22;59888;55.814;37.132;2022-12-18T01:07:54;-1.38;66.72
71396;DHT22;59888;55.814;37.132;2022-12-18T01:10:20;-1.40;67.72
71396;DHT22;59888;55.814;37.132;2022-12-18T01:12:46;-1.38;67.75
71396;DHT22;59888;55.814;37.132;2022-12-18T01:15:13;-1.30;67.14
71396;DHT22;59888;55.814;37.132;2022-12-18T01:17:39;-1.34;66.09
71396;DHT22;59888;55.814;37.132;2022-12-18T01:20:05;-1.40;64.95
71396;DHT22;59888;55.814;37.132;2022-12-18T01:22:34;-1.44;65.97
71396;DHT22;59888;55.814;37.132;2022-12-18T01:24:59;-1.43;64.73
71396;DHT22;59888;55.814;37.132;2022-12-18T01:27:25;-1.44;64.90
71396;DHT22;59888;55.814;37.132;2022-12-18T01:29:51;-1.48;65.16
71396;DHT22;59888;55.814;37.132;2022-12-18T01:32:19;-1.48;65.45
71396;DHT22;59888;55.814;37.132;2022-12-18T01:34:44;-1.47;64.81
71396;DHT22;59888;55.814;37.132;2022-12-18T01:37:10;-1.55;65.64
71396;DHT22;59888;55.814;37.132;2022-12-18T01:39:36;-1.58;66.13
71396;DHT22;59888;55.814;37.132;2022-12-18T01:42:12;-1.60;66.06
71396;DHT22;59888;55.814;37.132;2022-12-18T01:53:06;-1.57;65.39
71396;DHT22;59888;55.814;37.132;2022-12-18T01:55:47;-1.57;65.65
71396;DHT22;59888;55.814;37.132;2022-12-18T01:58:14;-1.64;66.91
71396;DHT22;59888;55.814;37.132;2022-12-18T02:00:41;-1.67;67.52
71396;DHT22;59888;55.814;37.132;2022-12-18T02:03:07;-1.67;67.33
71396;DHT22;59888;55.814;37.132;2022-12-18T02:05:40;-1.70;67.57
71396;DHT22;59888;55.814;37.132;2022-12-18T02:16:28;-1.70;67.17
71396;DHT22;59888;55.814;37.132;2022-12-18T02:19:08;-1.70;66.21
71396;DHT22;59888;55.814;37.132;2022-12-18T02:21:57;-1.77;66.48
71396;DHT22;59888;55.814;37.132;2022-12-18T02:24:37;-1.84;66.96
71396;DHT22;59888;55.814;37.132;2022-12-18T02:27:08;-1.88;71.52
71396;DHT22;59888;55.814;37.132;2022-12-18T02:29:40;-1.83;70.29
71396;DHT22;59888;55.814;37.132;2022-12-18T02:32:10;-1.87;71.22
71396;DHT22;59888;55.814;37.132;2022-12-18T02:34:39;-1.90;70.30
71396;DHT22;59888;55.814;37.132;2022-12-18T02:37:13;-1.89;69.93
71396;DHT22;59888;55.814;37.132;2022-12-18T02:39:42;-1.89;69.78
71396;DHT22;59888;55.814;37.132;2022-12-18T02:42:11;-1.93;69.36
71396;DHT22;59888;55.814;37.132;2022-12-18T02:44:47;-1.94;70.07
71396;DHT22;59888;55.814;37.132;2022-12-18T02:47:20;-1.95;69.04
71396;DHT22;59888;55.814;37.132;2022-12-18T02:52:46;-1.94;69.62
71396;DHT22;59888;55.814;37.132;2022-12-18T02:57:55;-1.87;66.85
71396;DHT22;59888;55.814;37.132;2022-12-18T03:00:41;-1.87;66.19
71396;DHT22;59888;55.814;37.132;2022-12-18T03:03:20;-1.93;65.62
71396;DHT22;59888;55.814;37.132;2022-12-18T03:06:00;-1.97;65.98
71396;DHT22;59888;55.814;37.132;2022-12-18T03:08:29;-2.01;65.71
71396;DHT22;59888;55.814;37.132;2022-12-18T03:11:02;-1.99;65.99
71396;DHT22;59888;55.814;37.132;2022-12-18T03:13:36;-2.00;65.71
71396;DHT22;59888;55.814;37.132;2022-12-18T03:16:05;-2.05;66.96
71396;DHT22;59888;55.814;37.132;2022-12-18T03:18:38;-2.08;68.33
71396;DHT22;59888;55.814;37.132;2022-12-18T03:21:07;-2.10;67.62
71396;DHT22;59888;55.814;37.132;2022-12-18T03:23:40;-2.20;66.75
71396;DHT22;59888;55.814;37.132;2022-12-18T03:26:13;-2.21;67.73
71396;DHT22;59888;55.814;37.132;2022-12-18T03:28:46;-2.20;69.82
71396;DHT22;59888;55.814;37.132;2022-12-18T03:31:16;-2.21;70.51
71396;DHT22;59888;55.814;37.132;2022-12-18T03:33:52;-2.24;68.58
71396;DHT22;59888;55.814;37.132;2022-12-18T03:36:23;-2.24;72.87
71396;DHT22;59888;55.814;37.132;2022-12-18T03:38:50;-2.22;71.94
71396;DHT22;59888;55.814;37.132;2022-12-18T03:44:29;-2.22;72.30
71396;DHT22;59888;55.814;37.132;2022-12-18T03:47:16;-2.27;70.15
71396;DHT22;59888;55.814;37.132;2022-12-18T03:50:14;-2.27;70.16
71396;DHT22;59888;55.814;37.132;2022-12-18T03:55:32;-2.30;71.01
71396;DHT22;59888;55.814;37.132;2022-12-18T03:58:04;-2.38;71.98
71396;DHT22;59888;55.814;37.132;2022-12-18T04:00:44;-2.34;72.28
71396;DHT22;59888;55.814;37.132;2022-12-18T04:03:10;-2.35;72.16
71396;DHT22;59888;55.814;37.132;2022-12-18T04:05:43;-2.33;72.61
71396;DHT22;59888;55.814;37.132;2022-12-18T04:08:10;-2.32;72.46
71396;DHT22;59888;55.814;37.132;2022-12-18T04:10:40;-2.28;70.87
71396;DHT22;59888;55.814;37.132;2022-12-18T04:13:06;-2.36;73.61
71396;DHT22;59888;55.814;37.132;2022-12-18T04:15:35;-2.33;73.43
71396;DHT22;59888;55.814;37.132;2022-12-18T04:18:03;-2.30;73.15
71396;DHT22;59888;55.814;37.132;2022-12-18T04:20:37;-2.24;71.82
71396;DHT22;59888;55.814;37.132;2022-12-18T04:23:03;-2.22;71.48
71396;DHT22;59888;55.814;37.132;2022-12-18T04:25:29;-2.22;70.99
71396;DHT22;59888;55.814;37.132;2022-12-18T04:28:05;-2.23;69.81
71396;DHT22;59888;55.814;37.132;2022-12-18T04:30:31;-2.29;68.90
71396;DHT22;59888;55.814;37.132;2022-12-18T04:32:58;-2.33;67.66
71396;DHT22;59888;55.814;37.132;2022-12-18T04:35:24;-2.32;68.53
71396;DHT22;59888;55.814;37.132;2022-12-18T04:37:49;-2.35;67.51
71396;DHT22;59888;55.814;37.132;2022-12-18T04:40:15;-2.33;67.03
71396;DHT22;59888;55.814;37.132;2022-12-18T04:42:45;-2.31;66.67
71396;DHT22;59888;55.814;37.132;2022-12-18T04:45:10;-2.39;69.56
71396;DHT22;59888;55.814;37.132;2022-12-18T04:47:36;-2.43;69.58
71396;DHT22;59888;55.814;37.132;2022-12-18T04:50:02;-2.45;69.19
71396;DHT22;59888;55.814;37.132;2022-12-18T04:52:31;-2.49;68.76
71396;DHT22;59888;55.814;37.132;2022-12-18T04:54:57;-2.47;69.84
71396;DHT22;59888;55.814;37.132;2022-12-18T04:57:23;-2.45;68.73
71396;DHT22;59888;55.814;37.132;2022-12-18T04:59:48;-2.45;67.46
71396;DHT22;59888;55.814;37.132;2022-12-18T05:02:14;-2.48;70.71
71396;DHT22;59888;55.814;37.132;2022-12-18T05:04:40;-2.50;70.23
71396;DHT22;59888;55.814;37.132;2022-12-18T05:07:06;-2.56;69.55
71396;DHT22;59888;55.814;37.132;2022-12-18T05:09:32;-2.56;70.94
71396;DHT22;59888;55.814;37.132;2022-12-18T05:11:57;-2.51;69.20
71396;DHT22;59888;55.814;37.132;2022-12-18T05:14:23;-2.56;68.33
71396;DHT22;59888;55.814;37.132;2022-12-18T05:16:49;-2.63;68.68
71396;DHT22;59888;55.814;37.132;2022-12-18T05:19:15;-2.59;68.32
71396;DHT22;59888;55.814;37.132;2022-12-18T05:21:41;-2.62;68.50
71396;DHT22;59888;55.814;37.132;2022-12-18T05:24:07;-2.54;70.16
71396;DHT22;59888;55.814;37.132;2022-12-18T05:26:33;-2.49;68.55
71396;DHT22;59888;55.814;37.132;2022-12-18T05:28:58;-2.53;68.18
71396;DHT22;59888;55.814;37.132;2022-12-18T05:31:24;-2.54;66.24
71396;DHT22;59888;55.814;37.132;2022-12-18T05:33:50;-2.53;67.51
71396;DHT22;59888;55.814;37.132;2022-12-18T05:36:16;-2.46;66.70
71396;DHT22;59888;55.814;37.132;2022-12-18T05:38:42;-2.45;66.02
71396;DHT22;59888;55.814;37.132;2022-12-18T05:41:08;-2.46;65.14
71396;DHT22;59888;55.814;37.132;2022-12-18T05:43:36;-2.51;66.72
71396;DHT22;59888;55.814;37.132;2022-12-18T05:46:07;-2.50;66.98
71396;DHT22;59888;55.814;37.132;2022-12-18T05:48:34;-2.42;66.69
71396;DHT22;59888;55.814;37.132;2022-12-18T05:51:11;-2.45;66.11
71396;DHT22;59888;55.814;37.132;2022-12-18T05:53:37;-2.50;69.83
71396;DHT22;59888;55.814;37.132;2022-12-18T05:56:05;-2.48;71.36
71396;DHT22;59888;55.814;37.132;2022-12-18T05:58:32;-2.49;70.25
71396;DHT22;59888;55.814;37.132;2022-12-18T06:01:05;-2.52;68.84
71396;DHT22;59888;55.814;37.132;2022-12-18T06:03:31;-2.60;68.87
71396;DHT22;59888;55.814;37.132;2022-12-18T06:05:57;-2.67;69.18
71396;DHT22;59888;55.814;37.132;2022-12-18T06:08:22;-2.64;69.02
71396;DHT22;59888;55.814;37.132;2022-12-18T06:10:52;-2.61;67.78
71396;DHT22;59888;55.814;37.132;2022-12-18T06:13:19;-2.61;66.83
71396;DHT22;59888;55.814;37.132;2022-12-18T06:15:45;-2.57;69.84
71396;DHT22;59888;55.814;37.132;2022-12-18T06:18:11;-2.57;72.09
71396;DHT22;59888;55.814;37.132;2022-12-18T06:20:37;-2.57;72.85
71396;DHT22;59888;55.814;37.132;2022-12-18T06:23:05;-2.52;71.77
71396;DHT22;59888;55.814;37.132;2022-12-18T06:25:32;-2.52;72.07
71396;DHT22;59888;55.814;37.132;2022-12-18T06:27:58;-2.50;69.07
71396;DHT22;59888;55.814;37.132;2022-12-18T06:30:24;-2.51;69.61
71396;DHT22;59888;55.814;37.132;2022-12-18T06:32:51;-2.53;70.16
71396;DHT22;59888;55.814;37.132;2022-12-18T06:35:16;-2.43;69.74
71396;DHT22;59888;55.814;37.132;2022-12-18T06:37:42;-2.49;68.07
71396;DHT22;59888;55.814;37.132;2022-12-18T06:40:08;-2.56;72.35
71396;DHT22;59888;55.814;37.132;2022-12-18T06:42:34;-2.53;73.38
71396;DHT22;59888;55.814;37.132;2022-12-18T06:45:00;-2.45;72.64
71396;DHT22;59888;55.814;37.132;2022-12-18T06:47:26;-2.47;75.96
71396;DHT22;59888;55.814;37.132;2022-12-18T06:49:51;-2.41;75.38
71396;DHT22;59888;55.814;37.132;2022-12-18T06:52:17;-2.37;73.42
71396;DHT22;59888;55.814;37.132;2022-12-18T06:54:43;-2.43;71.40
71396;DHT22;59888;55.814;37.132;2022-12-18T06:57:09;-2.45;71.03
71396;DHT22;59888;55.814;37.132;2022-12-18T06:59:34;-2.36;71.01
71396;DHT22;59888;55.814;37.132;2022-12-18T07:02:00;-2.34;69.42
71396;DHT22;59888;55.814;37.132;2022-12-18T07:04:30;-2.35;69.92
71396;DHT22;59888;55.814;37.132;2022-12-18T07:06:56;-2.33;69.53
71396;DHT22;59888;55.814;37.132;2022-12-18T07:09:21;-2.36;68.85
71396;DHT22;59888;55.814;37.132;2022-12-18T07:11:47;-2.34;68.39
71396;DHT22;59888;55.814;37.132;2022-12-18T07:14:13;-2.27;66.79
71396;DHT22;59888;55.814;37.132;2022-12-18T07:16:39;-2.16;66.48
71396;DHT22;59888;55.814;37.132;2022-12-18T07:19:04;-2.10;66.42
71396;DHT22;59888;55.814;37.132;2022-12-18T07:21:30;-2.04;65.58
71396;DHT22;59888;55.814;37.132;2022-12-18T07:23:56;-2.00;65.81
71396;DHT22;59888;55.814;37.132;2022-12-18T07:26:22;-2.03;64.95
71396;DHT22;59888;55.814;37.132;2022-12-18T07:28:48;-2.00;64.52
71396;DHT22;59888;55.814;37.132;2022-12-18T07:31:17;-1.98;65.19
71396;DHT22;59888;55.814;37.132;2022-12-18T07:33:44;-1.98;63.16
71396;DHT22;59888;55.814;37.132;2022-12-18T07:36:10;-1.97;63.79
71396;DHT22;59888;55.814;37.132;2022-12-18T07:38:37;-2.05;63.47
71396;DHT22;59888;55.814;37.132;2022-12-18T07:41:08;-2.19;64.09
71396;DHT22;59888;55.814;37.132;2022-12-18T07:43:35;-2.26;65.95
71396;DHT22;59888;55.814;37.132;2022-12-18T07:46:02;-2.22;66.11
71396;DHT22;59888;55.814;37.132;2022-12-18T07:48:31;-2.17;65.53
71396;DHT22;59888;55.814;37.132;2022-12-18T07:51:01;-2.15;64.36
71396;DHT22;59888;55.814;37.132;2022-12-18T07:53:27;-2.07;64.69
71396;DHT22;59888;55.814;37.132;2022-12-18T07:56:00;-1.97;64.27
71396;DHT22;59888;55.814;37.132;2022-12-18T07:58:28;-1.93;63.56
71396;DHT22;59888;55.814;37.132;2022-12-18T08:01:01;-1.85;63.77
71396;DHT22;59888;55.814;37.132;2022-12-18T08:03:27;-1.78;63.23
71396;DHT22;59888;55.814;37.132;2022-12-18T08:05:58;-1.73;63.85
71396;DHT22;59888;55.814;37.132;2022-12-18T08:08:24;-1.65;63.32
71396;DHT22;59888;55.814;37.132;2022-12-18T08:10:50;-1.65;63.33
71396;DHT22;59888;55.814;37.132;2022-12-18T08:13:15;-1.71;63.36
71396;DHT22;59888;55.814;37.132;2022-12-18T08:15:41;-1.72;63.15
71396;DHT22;59888;55.814;37.132;2022-12-18T08:18:11;-1.70;63.57
71396;DHT22;59888;55.814;37.132;2022-12-18T08:20:36;-1.69;63.42
71396;DHT22;59888;55.814;37.132;2022-12-18T08:23:02;-1.63;64.18
71396;DHT22;59888;55.814;37.132;2022-12-18T08:25:28;-1.60;64.01
71396;DHT22;59888;55.814;37.132;2022-12-18T08:27:54;-1.48;63.60
71396;DHT22;59888;55.814;37.132;2022-12-18T08:30:22;-1.46;64.30
71396;DHT22;59888;55.814;37.132;2022-12-18T08:32:51;-1.36;63.95
71396;DHT22;59888;55.814;37.132;2022-12-18T08:35:18;-1.28;63.95
71396;DHT22;59888;55.814;37.132;2022-12-18T08:37:44;-1.35;62.63
71396;DHT22;59888;55.814;37.132;2022-12-18T08:40:10;-1.34;63.44
71396;DHT22;59888;55.814;37.132;2022-12-18T08:42:36;-1.28;63.58
71396;DHT22;59888;55.814;37.132;2022-12-18T08:45:20;-1.39;64.67
71396;DHT22;59888;55.814;37.132;2022-12-18T08:47:46;-1.46;63.68
71396;DHT22;59888;55.814;37.132;2022-12-18T08:50:12;-1.44;63.58
71396;DHT22;59888;55.814;37.132;2022-12-18T08:52:38;-1.40;63.16
71396;DHT22;59888;55.814;37.132;2022-12-18T08:55:04;-1.39;63.74
71396;DHT22;59888;55.814;37.132;2022-12-18T08:57:30;-1.31;62.87
71396;DHT22;59888;55.814;37.132;2022-12-18T08:59:56;-1.26;62.82
71396;DHT22;59888;55.814;37.132;2022-12-18T09:02:22;-1.30;62.92
71396;DHT22;59888;55.814;37.132;2022-12-18T09:04:47;-1.28;62.32
71396;DHT22;59888;55.814;37.132;2022-12-18T09:07:13;-1.30;63.27
71396;DHT22;59888;55.814;37.132;2022-12-18T09:09:39;-1.35;62.89
71396;DHT22;59888;55.814;37.132;2022-12-18T09:12:05;-1.42;63.71
71396;DHT22;59888;55.814;37.132;2022-12-18T09:14:31;-1.44;63.66
71396;DHT22;59888;55.814;37.132;2022-12-18T09:16:57;-1.48;63.21
71396;DHT22;59888;55.814;37.132;2022-12-18T09:19:23;-1.47;63.18
71396;DHT22;59888;55.814;37.132;2022-12-18T09:21:49;-1.50;63.21
71396;DHT22;59888;55.814;37.132;2022-12-18T09:24:15;-1.46;63.35
71396;DHT22;59888;55.814;37.132;2022-12-18T09:26:41;-1.45;64.25
71396;DHT22;59888;55.814;37.132;2022-12-18T09:29:07;-1.42;63.83
71396;DHT22;59888;55.814;37.132;2022-12-18T09:31:33;-1.36;63.27
71396;DHT22;59888;55.814;37.132;2022-12-18T09:33:59;-1.32;63.31
71396;DHT22;59888;55.814;37.132;2022-12-18T09:36:25;-1.28;63.34
71396;DHT22;59888;55.814;37.132;2022-12-18T09:38:51;-1.31;64.30
71396;DHT22;59888;55.814;37.132;2022-12-18T09:41:54;-1.24;63.56
71396;DHT22;59888;55.814;37.132;2022-12-18T09:44:41;-1.26;63.50
71396;DHT22;59888;55.814;37.132;2022-12-18T09:47:16;-1.28;63.59
71396;DHT22;59888;55.814;37.132;2022-12-18T09:49:46;-1.35;65.09
71396;DHT22;59888;55.814;37.132;2022-12-18T09:52:17;-1.43;63.81
71396;DHT22;59888;55.814;37.132;2022-12-18T09:54:53;-1.46;64.43
71396;DHT22;59888;55.814;37.132;2022-12-18T09:57:22;-1.53;65.67
71396;DHT22;59888;55.814;37.132;2022-12-18T09:59:55;-1.56;66.93
71396;DHT22;59888;55.814;37.132;2022-12-18T10:02:24;-1.56;65.91
71396;DHT22;59888;55.814;37.132;2022-12-18T10:05:12;-1.50;64.09
71396;DHT22;59888;55.814;37.132;2022-12-18T10:10:34;-1.43;63.80
71396;DHT22;59888;55.814;37.132;2022-12-18T10:19:15;-1.39;64.14
71396;DHT22;59888;55.814;37.132;2022-12-18T10:24:37;-1.41;64.41
71396;DHT22;59888;55.814;37.132;2022-12-18T10:27:21;-1.35;63.95
71396;DHT22;59888;55.814;37.132;2022-12-18T10:29:48;-1.39;64.56
71396;DHT22;59888;55.814;37.132;2022-12-18T10:32:19;-1.39;64.42
71396;DHT22;59888;55.814;37.132;2022-12-18T10:34:47;-1.42;64.78
71396;DHT22;59888;55.814;37.132;2022-12-18T10:37:19;-1.48;65.99
71396;DHT22;59888;55.814;37.132;2022-12-18T10:39:46;-1.50;66.40
71396;DHT22;59888;55.814;37.132;2022-12-18T10:42:18;-1.46;66.17
71396;DHT22;59888;55.814;37.132;2022-12-18T10:44:44;-1.44;64.75
71396;DHT22;59888;55.814;37.132;2022-12-18T10:47:18;-1.41;64.31
71396;DHT22;59888;55.814;37.132;2022-12-18T10:49:51;-1.31;64.12
71396;DHT22;59888;55.814;37.132;2022-12-18T10:52:21;-1.28;64.24
71396;DHT22;59888;55.814;37.132;2022-12-18T10:54:55;-1.35;68.49
71396;DHT22;59888;55.814;37.132;2022-12-18T10:59:56;-1.44;67.08
71396;DHT22;59888;55.814;37.132;2022-12-18T11:02:37;-1.45;72.03
71396;DHT22;59888;55.814;37.132;2022-12-18T11:05:30;-1.53;71.64
71396;DHT22;59888;55.814;37.132;2022-12-18T11:07:57;-1.53;71.18
71396;DHT22;59888;55.814;37.132;2022-12-18T11:10:36;-1.52;70.11
71396;DHT22;59888;55.814;37.132;2022-12-18T11:15:42;-1.60;68.87
71396;DHT22;59888;55.814;37.132;2022-12-18T11:20:42;-1.67;68.91
71396;DHT22;59888;55.814;37.132;2022-12-18T11:23:12;-1.68;68.42
71396;DHT22;59888;55.814;37.132;2022-12-18T11:25:39;-1.69;69.59
71396;DHT22;59888;55.814;37.132;2022-12-18T11:28:34;-1.67;68.09
71396;DHT22;59888;55.814;37.132;2022-12-18T11:34:05;-1.57;66.61
71396;DHT22;59888;55.814;37.132;2022-12-18T11:36:44;-1.53;65.98
71396;DHT22;59888;55.814;37.132;2022-12-18T11:39:44;-1.52;66.85
71396;DHT22;59888;55.814;37.132;2022-12-18T11:42:21;-1.52;65.87
71396;DHT22;59888;55.814;37.132;2022-12-18T11:44:54;-1.50;65.30
71396;DHT22;59888;55.814;37.132;2022-12-18T11:50:59;-1.63;64.56
71396;DHT22;59888;55.814;37.132;2022-12-18T11:53:00;-1.70;66.88
71396;DHT22;59888;55.814;37.132;2022-12-18T12:19:56;-1.68;66.77
71396;DHT22;59888;55.814;37.132;2022-12-18T12:31:07;-1.55;65.04
71396;DHT22;59888;55.814;37.132;2022-12-18T12:36:17;-1.52;64.52
71396;DHT22;59888;55.814;37.132;2022-12-18T12:38:55;-1.54;64.48
71396;DHT22;59888;55.814;37.132;2022-12-18T12:41:25;-1.50;64.72
71396;DHT22;59888;55.814;37.132;2022-12-18T12:44:27;-1.53;64.62
71396;DHT22;59888;55.814;37.132;2022-12-18T12:46:57;-1.55;64.98
71396;DHT22;59888;55.814;37.132;2022-12-18T12:49:27;-1.61;64.56
71396;DHT22;59888;55.814;37.132;2022-12-18T12:52:06;-1.63;64.80
71396;DHT22;59888;55.814;37.132;2022-12-18T12:54:34;-1.61;64.37
71396;DHT22;59888;55.814;37.132;2022-12-18T13:07:55;-1.77;64.92
71396;DHT22;59888;55.814;37.132;2022-12-18T13:10:26;-1.77;64.44
71396;DHT22;59888;55.814;37.132;2022-12-18T13:13:07;-1.78;64.36
71396;DHT22;59888;55.814;37.132;2022-12-18T13:16:04;-1.80;64.34
71396;DHT22;59888;55.814;37.132;2022-12-18T13:18:30;-1.83;64.25
71396;DHT22;59888;55.814;37.132;2022-12-18T13:31:58;-1.85;63.71
71396;DHT22;59888;55.814;37.132;2022-12-18T13:34:28;-1.86;63.84
71396;DHT22;59888;55.814;37.132;2022-12-18T13:36:56;-1.90;63.76
71396;DHT22;59888;55.814;37.132;2022-12-18T13:39:31;-1.91;63.60
71396;DHT22;59888;55.814;37.132;2022-12-18T13:44:35;-2.04;63.40
71396;DHT22;59888;55.814;37.132;2022-12-18T13:47:03;-2.13;63.27
71396;DHT22;59888;55.814;37.132;2022-12-18T13:52:01;-2.15;63.37
71396;DHT22;59888;55.814;37.132;2022-12-18T13:54:39;-2.16;63.44
71396;DHT22;59888;55.814;37.132;2022-12-18T13:59:50;-2.13;63.47
71396;DHT22;59888;55.814;37.132;2022-12-18T14:02:21;-2.19;63.53
71396;DHT22;59888;55.814;37.132;2022-12-18T14:04:48;-2.27;63.73
71396;DHT22;59888;55.814;37.132;2022-12-18T14:07:20;-2.28;63.79
71396;DHT22;59888;55.814;37.132;2022-12-18T14:09:52;-2.27;63.73
71396;DHT22;59888;55.814;37.132;2022-12-18T14:12:24;-2.35;63.63
71396;DHT22;59888;55.814;37.132;2022-12-18T14:15:33;-2.36;63.83
71396;DHT22;59888;55.814;37.132;2022-12-18T14:20:32;-2.37;63.58
71396;DHT22;59888;55.814;37.132;2022-12-18T14:22:58;-2.37;63.36
71396;DHT22;59888;55.814;37.132;2022-12-18T14:25:29;-2.44;63.29
71396;DHT22;59888;55.814;37.132;2022-12-18T14:28:12;-2.48;63.44
71396;DHT22;59888;55.814;37.132;2022-12-18T14:30:41;-2.51;63.50
71396;DHT22;59888;55.814;37.132;2022-12-18T14:33:11;-2.51;63.56
71396;DHT22;59888;55.814;37.132;2022-12-18T14:35:40;-2.52;63.65
71396;DHT22;59888;55.814;37.132;2022-12-18T14:38:27;-2.51;63.71
71396;DHT22;59888;55.814;37.132;2022-12-18T14:41:03;-2.56;63.71
71396;DHT22;59888;55.814;37.132;2022-12-18T14:43:32;-2.66;63.82
71396;DHT22;59888;55.814;37.132;2022-12-18T14:46:00;-2.65;63.83
71396;DHT22;59888;55.814;37.132;2022-12-18T14:51:21;-2.80;63.78
71396;DHT22;59888;55.814;37.132;2022-12-18T14:53:58;-2.83;63.78
71396;DHT22;59888;55.814;37.132;2022-12-18T14:56:31;-2.82;63.67
71396;DHT22;59888;55.814;37.132;2022-12-18T14:59:01;-2.83;63.56
71396;DHT22;59888;55.814;37.132;2022-12-18T15:01:34;-2.83;63.43
71396;DHT22;59888;55.814;37.132;2022-12-18T15:04:00;-2.83;63.40
71396;DHT22;59888;55.814;37.132;2022-12-18T15:06:36;-2.86;63.28
71396;DHT22;59888;55.814;37.132;2022-12-18T15:09:06;-2.91;63.34
71396;DHT22;59888;55.814;37.132;2022-12-18T15:11:46;-2.93;63.14
71396;DHT22;59888;55.814;37.132;2022-12-18T15:14:23;-2.96;63.40
71396;DHT22;59888;55.814;37.132;2022-12-18T15:16:53;-3.04;63.49
71396;DHT22;59888;55.814;37.132;2022-12-18T15:19:21;-3.05;63.27
71396;DHT22;59888;55.814;37.132;2022-12-18T15:21:48;-3.04;63.46
71396;DHT22;59888;55.814;37.132;2022-12-18T15:24:20;-3.06;63.39
71396;DHT22;59888;55.814;37.132;2022-12-18T15:26:48;-3.10;63.50
71396;DHT22;59888;55.814;37.132;2022-12-18T15:29:21;-3.07;63.46
71396;DHT22;59888;55.814;37.132;2022-12-18T15:32:02;-3.16;62.97
71396;DHT22;59888;55.814;37.132;2022-12-18T15:34:29;-3.26;63.06
71396;DHT22;59888;55.814;37.132;2022-12-18T15:36:55;-3.28;63.03
71396;DHT22;59888;55.814;37.132;2022-12-18T15:39:21;-3.33;62.38
71396;DHT22;59888;55.814;37.132;2022-12-18T15:41:47;-3.45;62.15
71396;DHT22;59888;55.814;37.132;2022-12-18T15:44:31;-3.54;62.24
71396;DHT22;59888;55.814;37.132;2022-12-18T15:46:57;-3.63;62.37
71396;DHT22;59888;55.814;37.132;2022-12-18T15:49:23;-3.70;62.26
71396;DHT22;59888;55.814;37.132;2022-12-18T15:51:54;-3.79;62.34
71396;DHT22;59888;55.814;37.132;2022-12-18T15:54:22;-3.86;62.37
71396;DHT22;59888;55.814;37.132;2022-12-18T15:57:09;-3.91;62.52
71396;DHT22;59888;55.814;37.132;2022-12-18T15:59:53;-3.96;62.49
71396;DHT22;59888;55.814;37.132;2022-12-18T16:02:20;-4.06;62.52
71396;DHT22;59888;55.814;37.132;2022-12-18T16:04:49;-4.12;62.35
71396;DHT22;59888;55.814;37.132;2022-12-18T16:07:15;-4.25;62.25
71396;DHT22;59888;55.814;37.132;2022-12-18T16:09:41;-4.25;62.55
71396;DHT22;59888;55.814;37.132;2022-12-18T16:12:18;-4.24;62.59
71396;DHT22;59888;55.814;37.132;2022-12-18T16:14:45;-4.23;62.49
71396;DHT22;59888;55.814;37.132;2022-12-18T16:17:12;-4.19;62.61
71396;DHT22;59888;55.814;37.132;2022-12-18T16:19:38;-4.16;62.49
71396;DHT22;59888;55.814;37.132;2022-12-18T16:22:04;-4.13;62.57
71396;DHT22;59888;55.814;37.132;2022-12-18T16:24:32;-4.14;62.45
71396;DHT22;59888;55.814;37.132;2022-12-18T16:26:59;-4.23;62.33
71396;DHT22;59888;55.814;37.132;2022-12-18T16:29:27;-4.28;62.50
71396;DHT22;59888;55.814;37.132;2022-12-18T16:31:57;-4.31;62.11
71396;DHT22;59888;55.814;37.132;2022-12-18T16:36:58;-4.42;62.12
71396;DHT22;59888;55.814;37.132;2022-12-18T16:39:25;-4.49;62.10
71396;DHT22;59888;55.814;37.132;2022-12-18T16:41:51;-4.53;62.27
71396;DHT22;59888;55.814;37.132;2022-12-18T16:44:17;-4.56;62.31
71396;DHT22;59888;55.814;37.132;2022-12-18T16:46:43;-4.56;62.39
71396;DHT22;59888;55.814;37.132;2022-12-18T16:49:14;-4.56;62.53
71396;DHT22;59888;55.814;37.132;2022-12-18T16:51:41;-4.57;62.55
71396;DHT22;59888;55.814;37.132;2022-12-18T16:54:07;-4.61;62.21
71396;DHT22;59888;55.814;37.132;2022-12-18T16:56:33;-4.73;62.13
71396;DHT22;59888;55.814;37.132;2022-12-18T16:59:01;-4.80;62.01
71396;DHT22;59888;55.814;37.132;2022-12-18T17:01:28;-4.99;61.38
71396;DHT22;59888;55.814;37.132;2022-12-18T17:04:03;-5.11;61.70
71396;DHT22;59888;55.814;37.132;2022-12-18T17:06:32;-5.27;61.20
71396;DHT22;59888;55.814;37.132;2022-12-18T17:09:00;-5.41;61.50
71396;DHT22;59888;55.814;37.132;2022-12-18T17:11:28;-5.46;61.70
71396;DHT22;59888;55.814;37.132;2022-12-18T17:13:55;-5.60;61.46
71396;DHT22;59888;55.814;37.132;2022-12-18T17:16:21;-5.72;61.74
71396;DHT22;59888;55.814;37.132;2022-12-18T17:18:48;-5.79;61.89
71396;DHT22;59888;55.814;37.132;2022-12-18T17:21:14;-5.85;62.12
71396;DHT22;59888;55.814;37.132;2022-12-18T17:23:41;-5.93;62.01
71396;DHT22;59888;55.814;37.132;2022-12-18T17:26:09;-6.01;62.06
71396;DHT22;59888;55.814;37.132;2022-12-18T17:28:36;-6.02;62.31
71396;DHT22;59888;55.814;37.132;2022-12-18T17:31:10;-6.01;62.43
71396;DHT22;59888;55.814;37.132;2022-12-18T17:33:36;-6.04;62.15
71396;DHT22;59888;55.814;37.132;2022-12-18T17:36:06;-6.07;61.99
71396;DHT22;59888;55.814;37.132;2022-12-18T17:38:32;-6.19;62.05